Time;durP1;ratioP1;P1;durP2;ratioP2;P2;SDS_P1;SDS_P2;PMS_P1;PMS_P2;Temp;Humidity;BMP_temperature;BMP_pressure;BME280_temperature;BME280_humidity;BME280_pressure;Samples;Min_cycle;Max_cycle;Signal;HPM_P1;HPM_P2
2022/12/15 00:39:25;;;;;;;;;;;21.70;39.30;;;;;;5071774;28;19966;-66
2022/12/15 00:41:52;;;;;;;;;;;21.60;39.40;;;;;;5071192;28;19924;-66
2022/12/15 00:44:19;;;;;;;;;;;21.50;39.00;;;;;;5071692;28;19908;-66
2022/12/15 00:46:55;;;;;;;;;;;21.30;38.30;;;;;;5072443;28;20378;-66
2022/12/15 01:22:22;;;;;;;;;;;21.60;38.90;;;;;;5073660;28;19962;-66
2022/12/15 01:24:49;;;;;;;;;;;21.40;39.40;;;;;;5053492;28;19908;-65
2022/12/15 01:27:15;;;;;;;;;;;21.50;40.30;;;;;;5072088;28;19950;-65
2022/12/15 01:29:42;;;;;;;;;;;21.50;39.80;;;;;;5071341;28;20325;-66
2022/12/15 01:32:09;;;;;;;;;;;21.50;38.90;;;;;;5070877;28;19909;-65
2022/12/15 01:34:35;;;;;;;;;;;21.30;39.70;;;;;;5071693;28;20094;-65
2022/12/15 01:37:02;;;;;;;;;;;21.40;40.00;;;;;;5071504;28;19909;-66
2022/12/15 01:40:43;;;;;;;;;;;21.50;41.90;;;;;;5071191;28;19971;-65
2022/12/15 01:42:15;;;;;;;;;;;21.70;41.70;;;;;;5071144;28;19996;-65
2022/12/15 01:44:43;;;;;;;;;;;21.70;40.10;;;;;;5071429;28;20364;-67
2022/12/15 01:47:11;;;;;;;;;;;21.50;42.40;;;;;;5053675;28;19915;-67
2022/12/15 01:49:37;;;;;;;;;;;21.50;43.20;;;;;;5069299;28;20286;-64
2022/12/15 01:52:04;;;;;;;;;;;21.60;44.10;;;;;;5071539;28;19970;-65
2022/12/15 01:54:31;;;;;;;;;;;21.50;42.10;;;;;;5071735;28;20397;-65
2022/12/15 01:57:02;;;;;;;;;;;21.50;42.90;;;;;;5071715;28;20317;-66
2022/12/15 01:59:49;;;;;;;;;;;21.60;42.20;;;;;;5053789;28;19921;-65
2022/12/15 02:02:16;;;;;;;;;;;21.60;42.00;;;;;;5053211;28;20007;-66
2022/12/15 02:04:43;;;;;;;;;;;21.40;42.10;;;;;;5053694;28;20439;-65
2022/12/15 02:07:12;;;;;;;;;;;21.30;42.70;;;;;;5055788;28;20035;-65
2022/12/15 02:09:38;;;;;;;;;;;21.20;42.40;;;;;;5057323;28;19916;-64
2022/12/15 02:12:11;;;;;;;;;;;21.20;43.40;;;;;;5075218;28;19913;-65
2022/12/15 02:20:27;;;;;;;;;;;21.30;41.60;;;;;;5088292;28;20275;-66
2022/12/15 02:23:00;;;;;;;;;;;21.30;42.00;;;;;;5115631;28;20259;-65
2022/12/15 02:25:33;;;;;;;;;;;21.40;43.80;;;;;;5115830;28;19943;-65
2022/12/15 02:28:18;;;;;;;;;;;21.40;42.60;;;;;;5115420;28;19974;-65
2022/12/15 02:31:48;;;;;;;;;;;21.50;43.40;;;;;;5111353;28;19964;-65
2022/12/15 02:33:33;;;;;;;;;;;21.40;42.80;;;;;;5099423;28;19911;-65
2022/12/15 02:36:01;;;;;;;;;;;21.30;43.90;;;;;;5097557;28;19961;-64
2022/12/15 02:38:38;;;;;;;;;;;21.40;43.70;;;;;;5097375;28;19907;-65
2022/12/15 02:41:05;;;;;;;;;;;21.40;44.80;;;;;;5109055;28;20358;-65
2022/12/15 02:43:33;;;;;;;;;;;21.50;46.00;;;;;;5114919;28;19908;-65
2022/12/15 02:46:07;;;;;;;;;;;21.60;44.80;;;;;;5097130;28;19911;-65
2022/12/15 02:48:41;;;;;;;;;;;21.40;42.70;;;;;;5096910;28;19915;-66
2022/12/15 02:51:11;;;;;;;;;;;21.30;45.10;;;;;;5096992;28;19961;-65
2022/12/15 02:53:48;;;;;;;;;;;21.40;45.80;;;;;;5097257;28;19919;-66
2022/12/15 02:56:36;;;;;;;;;;;21.40;44.10;;;;;;5084197;28;20388;-66
2022/12/15 02:59:12;;;;;;;;;;;21.40;46.00;;;;;;5115058;28;19907;-66
2022/12/15 03:01:55;;;;;;;;;;;21.40;45.70;;;;;;5115144;28;19923;-66
2022/12/15 03:04:22;;;;;;;;;;;21.50;45.70;;;;;;5114955;28;19973;-65
2022/12/15 03:06:55;;;;;;;;;;;21.40;46.80;;;;;;5115005;28;19908;-66
2022/12/15 03:09:22;;;;;;;;;;;21.30;46.10;;;;;;5096420;28;19919;-66
2022/12/15 03:11:48;;;;;;;;;;;21.40;47.30;;;;;;5115173;28;19951;-66
2022/12/15 03:14:15;;;;;;;;;;;21.40;46.50;;;;;;5115012;28;19919;-66
2022/12/15 03:16:42;;;;;;;;;;;21.50;46.60;;;;;;5096928;28;19908;-66
2022/12/15 09:14:21;;;;;;;;;;;18.50;63.00;;;;;;5104370;27;19934;-66
2022/12/15 09:16:47;;;;;;;;;;;18.40;61.50;;;;;;5118685;27;19911;-67
2022/12/15 09:19:14;;;;;;;;;;;18.40;62.10;;;;;;5130347;27;19963;-66
2022/12/15 09:21:43;;;;;;;;;;;18.30;62.40;;;;;;5099232;27;19920;-66
2022/12/15 09:24:11;;;;;;;;;;;18.30;63.40;;;;;;5093575;28;19951;-68
2022/12/15 09:26:38;;;;;;;;;;;18.30;62.90;;;;;;5112202;27;20344;-66
2022/12/15 09:29:04;;;;;;;;;;;18.30;63.90;;;;;;5114363;27;19919;-66
2022/12/15 09:31:31;;;;;;;;;;;18.30;64.60;;;;;;5124481;27;19923;-66
2022/12/15 09:33:58;;;;;;;;;;;18.30;64.90;;;;;;5120393;27;19908;-66
2022/12/15 09:36:25;;;;;;;;;;;18.20;64.80;;;;;;5130357;28;20386;-66
2022/12/15 09:38:52;;;;;;;;;;;18.20;64.80;;;;;;5116994;28;19995;-66
2022/12/15 09:41:23;;;;;;;;;;;18.20;65.00;;;;;;5089748;28;19924;-68
2022/12/15 09:43:54;;;;;;;;;;;18.10;65.00;;;;;;5080964;28;19927;-66
2022/12/15 09:46:25;;;;;;;;;;;18.20;65.60;;;;;;5120013;28;19957;-67
2022/12/15 09:48:51;;;;;;;;;;;18.10;65.10;;;;;;5109508;28;19923;-65
2022/12/15 09:51:18;;;;;;;;;;;18.10;65.00;;;;;;5099280;28;19912;-64
2022/12/15 09:53:48;;;;;;;;;;;18.20;65.60;;;;;;5088511;28;20190;-66
2022/12/15 09:56:18;;;;;;;;;;;18.20;65.10;;;;;;5104080;28;19927;-66
2022/12/15 09:58:44;;;;;;;;;;;18.20;63.40;;;;;;5102421;28;19916;-67
2022/12/15 10:01:11;;;;;;;;;;;18.10;63.20;;;;;;5110285;28;19919;-66
2022/12/15 10:03:40;;;;;;;;;;;18.00;63.50;;;;;;5120293;28;19911;-67
2022/12/15 10:06:10;;;;;;;;;;;18.00;63.10;;;;;;5126089;28;19955;-67
2022/12/15 10:08:38;;;;;;;;;;;18.00;63.20;;;;;;5104644;28;19912;-67
2022/12/15 10:11:05;;;;;;;;;;;18.00;63.30;;;;;;5105703;28;19945;-66
2022/12/15 10:13:52;;;;;;;;;;;18.00;63.70;;;;;;5088085;28;19930;-67
2022/12/15 10:16:18;;;;;;;;;;;18.00;62.90;;;;;;5108539;28;19912;-66
2022/12/15 10:18:51;;;;;;;;;;;18.00;63.20;;;;;;5110317;28;19973;-66
2022/12/15 10:21:17;;;;;;;;;;;18.00;63.20;;;;;;5109335;28;19920;-66
2022/12/15 10:23:44;;;;;;;;;;;18.00;63.60;;;;;;5103931;28;19912;-67
2022/12/15 10:26:18;;;;;;;;;;;17.90;63.90;;;;;;5115445;28;19912;-67
2022/12/15 10:28:57;;;;;;;;;;;17.90;63.30;;;;;;5092593;28;19995;-68
2022/12/15 10:31:27;;;;;;;;;;;17.90;61.80;;;;;;5091307;28;19915;-65
2022/12/15 10:33:55;;;;;;;;;;;17.80;60.90;;;;;;5106014;28;19915;-67
2022/12/15 10:36:25;;;;;;;;;;;17.90;60.70;;;;;;5089935;28;19987;-66
2022/12/15 10:38:51;;;;;;;;;;;17.80;60.80;;;;;;5112311;28;20397;-66
2022/12/15 10:41:22;;;;;;;;;;;17.80;61.00;;;;;;5094121;28;19920;-67
2022/12/15 10:43:49;;;;;;;;;;;17.80;61.70;;;;;;5095088;27;19915;-67
2022/12/15 10:46:19;;;;;;;;;;;17.80;61.90;;;;;;5105525;28;20098;-66
2022/12/15 10:48:46;;;;;;;;;;;17.80;61.90;;;;;;5109814;27;19916;-67
2022/12/15 10:51:14;;;;;;;;;;;17.90;62.30;;;;;;5093148;28;20311;-67
2022/12/15 10:53:48;;;;;;;;;;;17.80;61.50;;;;;;5121211;27;19922;-66
2022/12/15 10:56:21;;;;;;;;;;;17.80;62.40;;;;;;5119633;27;19998;-66
2022/12/15 10:58:51;;;;;;;;;;;17.80;61.90;;;;;;5114189;28;19918;-68
2022/12/15 11:01:18;;;;;;;;;;;17.70;61.30;;;;;;5114810;28;20010;-67
2022/12/15 11:03:45;;;;;;;;;;;17.70;60.90;;;;;;5113553;28;19952;-65
2022/12/15 11:06:21;;;;;;;;;;;17.80;61.30;;;;;;5114713;28;19912;-67
2022/12/15 11:08:48;;;;;;;;;;;17.70;61.70;;;;;;5089056;28;19934;-66
2022/12/15 11:14:13;;;;;;;;;;;17.70;61.80;;;;;;5087125;28;20487;-66
2022/12/15 11:16:47;;;;;;;;;;;17.70;62.50;;;;;;5076199;28;19912;-66
2022/12/15 11:19:15;;;;;;;;;;;17.70;61.50;;;;;;5084298;28;19918;-66
2022/12/15 11:21:44;;;;;;;;;;;17.70;61.00;;;;;;5076333;28;19923;-67
2022/12/15 11:24:33;;;;;;;;;;;17.60;61.80;;;;;;5075994;28;19908;-66
2022/12/15 11:27:14;;;;;;;;;;;17.50;62.10;;;;;;5094007;28;19966;-65
2022/12/15 11:29:54;;;;;;;;;;;17.60;62.60;;;;;;5076106;28;19919;-66
2022/12/15 11:32:22;;;;;;;;;;;17.60;62.80;;;;;;5093902;28;19986;-66
2022/12/15 11:34:49;;;;;;;;;;;17.70;61.60;;;;;;5067116;28;19908;-66
2022/12/15 11:37:35;;;;;;;;;;;17.60;60.60;;;;;;5077027;28;20365;-67
2022/12/15 11:40:20;;;;;;;;;;;17.50;60.10;;;;;;5100276;28;19912;-67
2022/12/15 11:42:59;;;;;;;;;;;17.50;61.60;;;;;;5081468;28;20354;-67
2022/12/15 11:45:38;;;;;;;;;;;17.50;61.60;;;;;;5109606;28;19970;-66
2022/12/15 11:48:16;;;;;;;;;;;17.50;62.30;;;;;;5108604;28;19912;-66
2022/12/15 11:50:48;;;;;;;;;;;17.50;62.40;;;;;;5096025;28;20392;-66
2022/12/15 11:53:14;;;;;;;;;;;17.50;62.90;;;;;;5095505;28;19934;-66
2022/12/15 11:55:44;;;;;;;;;;;17.50;62.70;;;;;;5110118;28;19970;-66
2022/12/15 11:58:20;;;;;;;;;;;17.50;62.50;;;;;;5113393;28;19950;-65
2022/12/15 12:01:00;;;;;;;;;;;17.50;62.50;;;;;;5112888;28;20292;-64
2022/12/15 12:03:27;;;;;;;;;;;17.50;62.60;;;;;;5083378;28;19912;-68
2022/12/15 12:05:56;;;;;;;;;;;17.50;63.30;;;;;;5110366;28;19915;-65
2022/12/15 12:08:41;;;;;;;;;;;17.50;63.90;;;;;;5113943;28;19907;-66
2022/12/15 12:11:11;;;;;;;;;;;17.50;63.70;;;;;;5112908;28;19912;-65
2022/12/15 12:13:56;;;;;;;;;;;17.50;64.00;;;;;;5086749;28;19920;-66
2022/12/15 12:16:35;;;;;;;;;;;17.50;64.10;;;;;;5112665;28;19908;-66
2022/12/15 12:19:20;;;;;;;;;;;17.50;61.70;;;;;;5113344;28;20365;-65
2022/12/15 12:21:47;;;;;;;;;;;17.50;61.90;;;;;;5080877;28;19931;-66
2022/12/15 12:24:14;;;;;;;;;;;17.40;61.40;;;;;;5091695;28;19916;-66
2022/12/15 12:26:42;;;;;;;;;;;17.40;61.10;;;;;;5099455;28;20093;-65
2022/12/15 12:29:14;;;;;;;;;;;17.30;61.50;;;;;;5094687;28;19913;-66
2022/12/15 12:31:49;;;;;;;;;;;17.30;63.90;;;;;;5086177;28;19916;-66
2022/12/15 12:34:26;;;;;;;;;;;17.20;65.10;;;;;;5091322;28;19908;-66
2022/12/15 12:36:53;;;;;;;;;;;17.00;68.50;;;;;;5091848;28;19951;-66
2022/12/15 12:39:20;;;;;;;;;;;16.90;69.80;;;;;;5091417;28;19919;-66
2022/12/15 12:41:50;;;;;;;;;;;16.80;67.20;;;;;;5089241;28;20002;-65
2022/12/15 12:44:34;;;;;;;;;;;16.90;67.60;;;;;;5090615;28;19916;-67
2022/12/15 12:47:24;;;;;;;;;;;16.90;66.30;;;;;;5099611;28;20392;-66
2022/12/15 12:49:54;;;;;;;;;;;16.90;65.10;;;;;;5081488;28;20354;-67
2022/12/15 12:52:21;;;;;;;;;;;16.80;63.60;;;;;;5085503;28;19912;-67
2022/12/15 12:54:57;;;;;;;;;;;16.80;62.20;;;;;;5078122;28;20274;-67
2022/12/15 12:57:32;;;;;;;;;;;16.90;62.40;;;;;;5071102;28;19919;-67
2022/12/15 13:00:18;;;;;;;;;;;16.90;61.70;;;;;;5074172;28;19916;-66
2022/12/15 13:02:52;;;;;;;;;;;16.90;62.60;;;;;;5091462;28;19927;-66
2022/12/15 13:05:23;;;;;;;;;;;17.00;65.10;;;;;;5075613;28;19914;-67
2022/12/15 13:07:53;;;;;;;;;;;16.80;69.40;;;;;;5092563;28;19908;-66
2022/12/15 13:10:20;;;;;;;;;;;16.50;72.10;;;;;;5082392;28;19912;-67
2022/12/15 13:12:47;;;;;;;;;;;16.20;72.60;;;;;;5086454;28;19955;-67
2022/12/15 13:15:14;;;;;;;;;;;16.00;72.80;;;;;;5112585;28;19946;-65
2022/12/15 13:17:41;;;;;;;;;;;15.80;75.10;;;;;;5112579;28;19912;-66
2022/12/15 13:20:19;;;;;;;;;;;15.70;73.80;;;;;;5091079;28;19970;-66
2022/12/15 13:22:46;;;;;;;;;;;15.70;73.10;;;;;;5079223;28;19924;-66
2022/12/15 13:25:30;;;;;;;;;;;15.70;71.90;;;;;;5106721;28;19953;-67
2022/12/15 13:27:58;;;;;;;;;;;15.70;69.10;;;;;;5112611;28;19923;-67
2022/12/15 13:30:24;;;;;;;;;;;15.90;69.60;;;;;;5091815;28;19908;-67
2022/12/15 13:32:51;;;;;;;;;;;16.00;68.20;;;;;;5112043;28;19907;-67
2022/12/15 13:35:21;;;;;;;;;;;16.10;68.40;;;;;;5090824;28;19958;-66
2022/12/15 13:38:01;;;;;;;;;;;16.20;66.70;;;;;;5098242;28;20429;-66
2022/12/15 13:40:34;;;;;;;;;;;16.20;66.00;;;;;;5097938;28;20361;-66
2022/12/15 13:43:04;;;;;;;;;;;16.30;65.40;;;;;;5114063;28;19931;-66
2022/12/15 13:45:42;;;;;;;;;;;16.30;65.10;;;;;;5130100;28;19960;-67
2022/12/15 13:48:18;;;;;;;;;;;16.20;63.70;;;;;;5103688;28;19911;-67
2022/12/15 13:50:53;;;;;;;;;;;16.20;68.30;;;;;;5120165;27;19920;-66
2022/12/15 13:53:21;;;;;;;;;;;16.00;68.40;;;;;;5112211;28;20281;-67
2022/12/15 13:55:52;;;;;;;;;;;15.80;67.40;;;;;;5093966;28;19918;-66
2022/12/15 13:58:18;;;;;;;;;;;15.90;69.90;;;;;;5123035;28;20313;-67
2022/12/15 14:00:50;;;;;;;;;;;15.70;67.60;;;;;;5097454;28;19912;-66
2022/12/15 14:03:17;;;;;;;;;;;15.80;67.50;;;;;;5107215;28;20355;-66
2022/12/15 14:05:53;;;;;;;;;;;15.80;68.80;;;;;;5132183;27;19914;-66
2022/12/15 14:08:20;;;;;;;;;;;15.80;67.60;;;;;;5136525;27;19977;-66
2022/12/15 14:10:59;;;;;;;;;;;15.80;67.20;;;;;;5099263;27;20026;-66
2022/12/15 14:13:26;;;;;;;;;;;15.90;66.90;;;;;;5100860;28;19924;-66
2022/12/15 14:15:54;;;;;;;;;;;15.90;66.10;;;;;;5094249;27;20430;-66
2022/12/15 14:18:28;;;;;;;;;;;16.00;65.60;;;;;;5110793;28;20396;-65
2022/12/15 14:20:55;;;;;;;;;;;16.00;66.90;;;;;;5109760;27;20002;-66
2022/12/15 14:23:23;;;;;;;;;;;16.10;66.80;;;;;;5100635;27;19923;-65
2022/12/15 14:25:57;;;;;;;;;;;16.10;66.60;;;;;;5108620;28;19939;-66
2022/12/15 14:28:24;;;;;;;;;;;16.00;66.00;;;;;;5096301;28;19985;-66
2022/12/15 14:30:50;;;;;;;;;;;16.20;68.00;;;;;;5117018;27;19919;-66
2022/12/15 14:33:17;;;;;;;;;;;16.20;70.30;;;;;;5095544;28;20333;-65
2022/12/15 14:35:44;;;;;;;;;;;16.00;69.70;;;;;;5097558;28;19908;-66
2022/12/15 14:38:14;;;;;;;;;;;15.90;71.20;;;;;;5100272;27;19994;-66
2022/12/15 14:40:41;;;;;;;;;;;15.70;69.40;;;;;;5104621;28;19912;-65
2022/12/15 14:43:28;;;;;;;;;;;15.70;69.00;;;;;;5085837;28;19958;-66
2022/12/15 14:45:56;;;;;;;;;;;15.70;65.00;;;;;;5107693;27;19991;-66
2022/12/15 14:48:33;;;;;;;;;;;15.70;66.90;;;;;;5101486;28;19912;-65
2022/12/15 14:51:00;;;;;;;;;;;15.80;66.70;;;;;;5091902;28;19935;-65
2022/12/15 14:53:28;;;;;;;;;;;15.90;66.00;;;;;;5098976;28;20369;-65
2022/12/15 14:55:55;;;;;;;;;;;15.90;65.30;;;;;;5092670;28;19912;-66
2022/12/15 14:58:24;;;;;;;;;;;16.00;64.70;;;;;;5115336;28;19915;-65
2022/12/15 15:00:52;;;;;;;;;;;15.80;62.80;;;;;;5111795;28;19918;-65
2022/12/15 15:03:23;;;;;;;;;;;15.80;63.00;;;;;;5089618;28;19916;-65
2022/12/15 15:06:00;;;;;;;;;;;15.90;63.90;;;;;;5105851;28;19923;-65
2022/12/15 15:08:28;;;;;;;;;;;15.80;62.80;;;;;;5093425;28;20619;-66
2022/12/15 15:10:55;;;;;;;;;;;15.90;64.00;;;;;;5100934;28;19959;-66
2022/12/15 15:13:25;;;;;;;;;;;16.00;63.30;;;;;;5069065;28;19928;-66
2022/12/15 15:15:52;;;;;;;;;;;16.00;63.20;;;;;;5082784;28;19915;-66
2022/12/15 15:18:20;;;;;;;;;;;16.00;62.40;;;;;;5110442;28;19951;-66
2022/12/15 15:20:49;;;;;;;;;;;16.00;62.90;;;;;;5092410;28;19908;-66
2022/12/15 15:23:16;;;;;;;;;;;16.00;63.40;;;;;;5095752;28;19919;-66
2022/12/15 15:25:53;;;;;;;;;;;16.00;62.40;;;;;;5114855;28;20313;-65
2022/12/15 15:28:20;;;;;;;;;;;16.00;63.90;;;;;;5113616;27;19908;-66
2022/12/15 15:30:50;;;;;;;;;;;16.00;63.70;;;;;;5117975;27;19916;-65
2022/12/15 15:33:18;;;;;;;;;;;15.90;64.20;;;;;;5110328;27;19919;-66
2022/12/15 15:35:45;;;;;;;;;;;16.00;64.50;;;;;;5121866;27;19912;-66
2022/12/15 15:38:31;;;;;;;;;;;16.00;64.20;;;;;;5130765;27;20281;-65
2022/12/15 15:41:02;;;;;;;;;;;16.00;64.30;;;;;;5124625;27;19922;-65
2022/12/15 15:43:29;;;;;;;;;;;16.00;65.00;;;;;;5111471;27;19971;-66
2022/12/15 15:45:58;;;;;;;;;;;15.90;64.80;;;;;;5102407;28;19921;-65
2022/12/15 15:48:26;;;;;;;;;;;15.90;64.80;;;;;;5097467;27;19952;-66
2022/12/15 15:50:53;;;;;;;;;;;15.90;65.20;;;;;;5103028;28;19912;-65
2022/12/15 15:53:20;;;;;;;;;;;16.00;65.50;;;;;;5112497;27;19916;-66
2022/12/15 15:55:47;;;;;;;;;;;15.90;64.90;;;;;;5106089;27;19940;-66
2022/12/15 15:58:14;;;;;;;;;;;15.90;64.90;;;;;;5104179;28;20004;-66
2022/12/15 16:00:41;;;;;;;;;;;15.90;64.30;;;;;;5128379;27;19908;-66
2022/12/15 16:03:07;;;;;;;;;;;15.90;65.00;;;;;;5110797;27;19924;-65
2022/12/15 16:05:34;;;;;;;;;;;15.90;64.50;;;;;;5130044;27;19915;-65
2022/12/15 16:08:01;;;;;;;;;;;15.90;64.10;;;;;;5090889;28;19955;-65
2022/12/15 16:10:28;;;;;;;;;;;15.90;63.80;;;;;;5095838;27;19918;-65
2022/12/15 16:12:55;;;;;;;;;;;15.90;63.60;;;;;;5106707;27;19920;-66
2022/12/15 16:15:22;;;;;;;;;;;16.00;64.00;;;;;;5123665;27;19908;-66
2022/12/15 16:17:49;;;;;;;;;;;16.00;62.90;;;;;;5134199;27;19907;-65
2022/12/15 16:20:16;;;;;;;;;;;15.80;61.60;;;;;;5134502;27;19908;-65
2022/12/15 16:22:43;;;;;;;;;;;15.90;61.70;;;;;;5091585;27;19923;-66
2022/12/15 16:25:20;;;;;;;;;;;15.80;60.80;;;;;;5125984;27;20466;-66
2022/12/15 16:27:47;;;;;;;;;;;15.80;60.90;;;;;;5099965;27;20385;-66
2022/12/15 16:30:15;;;;;;;;;;;15.80;61.10;;;;;;5134396;27;19911;-66
2022/12/15 16:32:41;;;;;;;;;;;15.90;61.20;;;;;;5109700;27;20068;-66
2022/12/15 16:35:08;;;;;;;;;;;15.80;61.70;;;;;;5093726;28;19911;-65
2022/12/15 16:37:35;;;;;;;;;;;15.80;62.00;;;;;;5095040;28;19919;-66
2022/12/15 16:40:02;;;;;;;;;;;15.70;61.50;;;;;;5094796;28;19912;-66
2022/12/15 16:42:28;;;;;;;;;;;15.70;62.30;;;;;;5122482;27;19967;-65
2022/12/15 16:44:55;;;;;;;;;;;15.70;62.40;;;;;;5118547;27;19959;-65
2022/12/15 16:47:22;;;;;;;;;;;15.70;62.20;;;;;;5133993;27;20365;-66
2022/12/15 16:49:48;;;;;;;;;;;15.70;61.50;;;;;;5133395;27;19915;-66
2022/12/15 16:52:19;;;;;;;;;;;15.60;62.50;;;;;;5112779;27;19915;-66
2022/12/15 16:54:47;;;;;;;;;;;15.50;62.80;;;;;;5106625;28;19953;-66
2022/12/15 16:57:13;;;;;;;;;;;15.40;64.00;;;;;;5074545;28;20275;-66
2022/12/15 16:59:40;;;;;;;;;;;15.40;64.60;;;;;;5087045;28;19961;-66
2022/12/15 17:02:19;;;;;;;;;;;15.40;64.50;;;;;;5116731;27;20366;-65
2022/12/15 17:04:46;;;;;;;;;;;15.30;66.00;;;;;;5094907;28;19908;-66
2022/12/15 17:07:12;;;;;;;;;;;15.20;67.30;;;;;;5132008;27;19911;-66
2022/12/15 17:09:39;;;;;;;;;;;15.20;68.80;;;;;;5098558;28;19951;-65
2022/12/15 17:12:07;;;;;;;;;;;15.20;69.40;;;;;;5087312;27;19916;-66
2022/12/15 17:14:34;;;;;;;;;;;15.20;69.10;;;;;;5095092;28;20341;-65
2022/12/15 17:17:01;;;;;;;;;;;15.20;68.30;;;;;;5123430;27;19907;-66
2022/12/15 17:19:28;;;;;;;;;;;15.20;68.90;;;;;;5100409;28;19965;-66
2022/12/15 17:21:55;;;;;;;;;;;15.20;68.10;;;;;;5105463;27;19955;-66
2022/12/15 17:24:21;;;;;;;;;;;15.20;68.20;;;;;;5116082;27;19982;-65
2022/12/15 17:26:48;;;;;;;;;;;15.20;68.40;;;;;;5108469;27;19912;-66
2022/12/15 17:29:24;;;;;;;;;;;15.20;68.20;;;;;;5093987;28;19916;-66
2022/12/15 17:31:50;;;;;;;;;;;15.20;67.10;;;;;;5094536;28;19912;-66
2022/12/15 17:34:22;;;;;;;;;;;15.20;68.80;;;;;;5115371;27;19912;-65
2022/12/15 17:36:49;;;;;;;;;;;15.20;69.00;;;;;;5105026;27;20006;-66
2022/12/15 17:39:16;;;;;;;;;;;15.10;66.80;;;;;;5133217;27;19922;-66
2022/12/15 17:41:42;;;;;;;;;;;15.10;65.80;;;;;;5132818;27;19915;-66
2022/12/15 17:44:19;;;;;;;;;;;15.10;64.40;;;;;;5118571;28;19919;-67
2022/12/15 17:46:46;;;;;;;;;;;15.10;63.50;;;;;;5094029;28;19923;-66
2022/12/15 17:49:13;;;;;;;;;;;15.20;61.80;;;;;;5122814;28;20365;-66
2022/12/15 17:51:39;;;;;;;;;;;15.20;61.00;;;;;;5132269;27;19908;-66
2022/12/15 17:54:08;;;;;;;;;;;15.30;61.30;;;;;;5087660;28;20459;-65
2022/12/15 17:56:34;;;;;;;;;;;15.20;60.00;;;;;;5082720;28;20297;-66
2022/12/15 17:59:01;;;;;;;;;;;15.20;60.90;;;;;;5117287;28;20021;-65
2022/12/15 18:01:27;;;;;;;;;;;15.20;59.00;;;;;;5110627;28;19916;-66
2022/12/15 18:03:54;;;;;;;;;;;15.30;60.60;;;;;;5110339;28;19919;-65
2022/12/15 18:06:21;;;;;;;;;;;15.20;60.40;;;;;;5111772;28;19962;-66
2022/12/15 18:08:47;;;;;;;;;;;15.20;59.70;;;;;;5102052;28;20044;-66
2022/12/15 18:11:14;;;;;;;;;;;15.20;58.70;;;;;;5114480;27;19919;-65
2022/12/15 18:13:41;;;;;;;;;;;15.30;59.30;;;;;;5113043;28;19993;-66
2022/12/15 18:16:08;;;;;;;;;;;15.20;59.00;;;;;;5111873;28;19912;-66
2022/12/15 18:18:34;;;;;;;;;;;15.20;58.70;;;;;;5115352;28;19919;-66
2022/12/15 18:21:12;;;;;;;;;;;15.20;58.40;;;;;;5110954;28;19934;-67
2022/12/15 18:23:39;;;;;;;;;;;15.20;57.40;;;;;;5107111;28;19912;-66
2022/12/15 18:26:06;;;;;;;;;;;15.20;57.20;;;;;;5110932;28;20343;-65
2022/12/15 18:28:33;;;;;;;;;;;15.30;59.00;;;;;;5111802;28;20388;-66
2022/12/15 18:31:19;;;;;;;;;;;15.20;60.50;;;;;;5111573;28;19908;-66
2022/12/15 18:33:46;;;;;;;;;;;15.10;60.20;;;;;;5110977;28;19914;-66
2022/12/15 18:36:13;;;;;;;;;;;15.10;58.50;;;;;;5104841;28;20441;-66
2022/12/15 18:38:39;;;;;;;;;;;15.10;57.10;;;;;;5093131;28;19911;-66
2022/12/15 18:41:08;;;;;;;;;;;15.10;56.10;;;;;;5126008;27;19922;-66
2022/12/15 18:43:34;;;;;;;;;;;15.00;54.60;;;;;;5093204;28;19961;-66
2022/12/15 18:46:01;;;;;;;;;;;15.10;54.60;;;;;;5086620;28;19908;-66
2022/12/15 18:48:28;;;;;;;;;;;15.20;53.90;;;;;;5094483;28;19954;-66
2022/12/15 18:50:55;;;;;;;;;;;15.10;53.80;;;;;;5126325;27;20357;-66
2022/12/15 18:53:35;;;;;;;;;;;15.20;54.20;;;;;;5103267;27;20350;-66
2022/12/15 18:56:05;;;;;;;;;;;15.10;53.00;;;;;;5128774;27;19923;-66
2022/12/15 18:58:32;;;;;;;;;;;15.10;52.20;;;;;;5135678;27;19907;-66
2022/12/15 19:00:59;;;;;;;;;;;15.00;52.00;;;;;;5108083;28;20293;-66
2022/12/15 19:03:26;;;;;;;;;;;15.00;51.90;;;;;;5131143;27;19911;-67
2022/12/15 19:05:55;;;;;;;;;;;15.00;52.40;;;;;;5126045;27;20246;-66
2022/12/15 19:08:25;;;;;;;;;;;15.00;53.90;;;;;;5103074;28;19911;-66
2022/12/15 19:10:58;;;;;;;;;;;14.90;54.10;;;;;;5121993;27;19915;-66
2022/12/15 19:13:30;;;;;;;;;;;14.80;55.20;;;;;;5135473;27;19942;-66
2022/12/15 19:15:56;;;;;;;;;;;14.80;56.20;;;;;;5121799;27;19907;-66
2022/12/15 19:24:15;;;;;;;;;;;14.70;56.30;;;;;;5102233;27;20363;-66
2022/12/15 19:26:42;;;;;;;;;;;14.70;58.30;;;;;;5096752;28;19908;-66
2022/12/15 19:29:18;;;;;;;;;;;14.70;60.50;;;;;;5099604;27;19907;-66
2022/12/15 19:31:45;;;;;;;;;;;14.60;61.90;;;;;;5135299;27;19907;-66
2022/12/15 19:34:12;;;;;;;;;;;14.50;63.00;;;;;;5099644;27;19919;-66
2022/12/15 19:36:39;;;;;;;;;;;14.50;64.30;;;;;;5132747;27;19934;-66
2022/12/15 19:39:05;;;;;;;;;;;14.40;63.70;;;;;;5135244;27;19914;-66
2022/12/15 19:41:33;;;;;;;;;;;14.30;63.60;;;;;;5101882;27;19912;-66
2022/12/15 19:44:00;;;;;;;;;;;14.40;64.20;;;;;;5134809;27;19908;-66
2022/12/15 19:46:26;;;;;;;;;;;14.30;62.80;;;;;;5128073;27;19914;-66
2022/12/15 19:48:53;;;;;;;;;;;14.30;63.70;;;;;;5135126;27;19918;-66
2022/12/15 19:51:20;;;;;;;;;;;14.40;62.20;;;;;;5134854;27;19918;-66
2022/12/15 19:53:47;;;;;;;;;;;14.30;61.50;;;;;;5134752;27;19907;-66
2022/12/15 19:56:22;;;;;;;;;;;14.40;61.90;;;;;;5098905;28;19908;-66
2022/12/15 19:58:49;;;;;;;;;;;14.40;64.80;;;;;;5096045;28;19911;-66
2022/12/15 20:01:16;;;;;;;;;;;14.30;68.70;;;;;;5124678;27;19958;-66
2022/12/15 20:03:43;;;;;;;;;;;14.20;69.20;;;;;;5097925;28;19915;-66
2022/12/15 20:06:14;;;;;;;;;;;14.20;68.40;;;;;;5096089;28;20443;-66
2022/12/15 20:08:41;;;;;;;;;;;14.10;67.10;;;;;;5098348;27;19990;-66
2022/12/15 20:11:26;;;;;;;;;;;14.00;68.90;;;;;;5134344;27;19912;-66
2022/12/15 20:13:53;;;;;;;;;;;14.00;68.10;;;;;;5133769;27;19920;-66
2022/12/15 20:16:20;;;;;;;;;;;14.10;68.10;;;;;;5123358;27;19911;-66
2022/12/15 20:18:49;;;;;;;;;;;14.10;67.10;;;;;;5134032;27;19934;-66
2022/12/15 20:21:16;;;;;;;;;;;14.20;67.20;;;;;;5107274;28;19971;-66
2022/12/15 20:23:49;;;;;;;;;;;14.20;66.70;;;;;;5128105;27;19911;-65
2022/12/15 20:26:15;;;;;;;;;;;14.20;66.80;;;;;;5124696;27;19960;-66
2022/12/15 20:28:42;;;;;;;;;;;14.20;68.20;;;;;;5101793;28;19911;-66
2022/12/15 20:31:12;;;;;;;;;;;14.30;68.10;;;;;;5094899;28;19908;-66
2022/12/15 20:33:38;;;;;;;;;;;14.20;67.70;;;;;;5125839;27;20425;-66
2022/12/15 20:36:05;;;;;;;;;;;14.30;67.10;;;;;;5118822;27;20002;-67
2022/12/15 20:38:32;;;;;;;;;;;14.30;67.20;;;;;;5109396;28;20391;-66
2022/12/15 20:40:59;;;;;;;;;;;14.30;67.20;;;;;;5094945;28;20316;-65
2022/12/15 20:43:26;;;;;;;;;;;14.40;66.50;;;;;;5132842;27;19911;-66
2022/12/15 20:45:59;;;;;;;;;;;14.40;65.70;;;;;;5107457;27;19912;-66
2022/12/15 20:48:25;;;;;;;;;;;14.50;65.50;;;;;;5092678;28;19947;-66
2022/12/15 20:50:52;;;;;;;;;;;14.60;65.10;;;;;;5123073;27;19914;-66
2022/12/15 20:53:20;;;;;;;;;;;14.70;64.90;;;;;;5133289;27;20238;-66
2022/12/15 20:55:47;;;;;;;;;;;14.70;64.60;;;;;;5119576;27;20262;-65
2022/12/15 20:58:13;;;;;;;;;;;14.80;63.90;;;;;;5127575;27;19952;-65
2022/12/15 21:00:40;;;;;;;;;;;14.80;62.50;;;;;;5133625;27;19908;-66
2022/12/15 21:03:20;;;;;;;;;;;14.90;62.30;;;;;;5133913;27;20017;-66
2022/12/15 21:05:47;;;;;;;;;;;15.10;61.30;;;;;;5099302;28;19912;-65
2022/12/15 21:08:21;;;;;;;;;;;15.10;60.00;;;;;;5125898;27;20010;-65
2022/12/15 21:10:48;;;;;;;;;;;15.20;61.10;;;;;;5108830;28;19915;-65
2022/12/15 21:13:19;;;;;;;;;;;15.20;60.10;;;;;;5083502;27;19999;-66
2022/12/15 21:15:46;;;;;;;;;;;15.20;59.80;;;;;;5087135;28;19923;-66
2022/12/15 21:18:13;;;;;;;;;;;15.20;59.70;;;;;;5091433;28;19946;-65
2022/12/15 21:20:40;;;;;;;;;;;15.30;58.90;;;;;;5091518;28;20281;-66
2022/12/15 21:23:12;;;;;;;;;;;15.50;57.50;;;;;;5092070;28;19923;-66
2022/12/15 21:25:38;;;;;;;;;;;15.60;57.40;;;;;;5085793;28;19908;-65
2022/12/15 21:28:08;;;;;;;;;;;15.60;55.20;;;;;;5092629;28;19931;-66
2022/12/15 21:30:35;;;;;;;;;;;15.70;56.00;;;;;;5073804;28;20289;-66
2022/12/15 21:33:02;;;;;;;;;;;15.70;56.80;;;;;;5073794;28;19912;-66
2022/12/15 21:35:28;;;;;;;;;;;15.60;56.10;;;;;;5091526;28;19915;-66
2022/12/15 21:37:55;;;;;;;;;;;15.60;56.50;;;;;;5107651;28;19930;-65
2022/12/15 21:40:22;;;;;;;;;;;15.60;56.50;;;;;;5112420;28;19915;-66
2022/12/15 21:42:49;;;;;;;;;;;15.70;55.80;;;;;;5112618;28;19969;-65
2022/12/15 21:45:16;;;;;;;;;;;16.00;55.80;;;;;;5103840;28;20075;-66
2022/12/15 21:50:28;;;;;;;;;;;16.40;55.00;;;;;;5104698;28;19919;-65
2022/12/15 21:52:54;;;;;;;;;;;16.40;53.70;;;;;;5104950;28;19912;-65
2022/12/15 21:55:21;;;;;;;;;;;16.30;57.00;;;;;;5090997;28;19915;-65